sensor_id;sensor_type;location;lat;lon;timestamp;pressure;altitude;pressure_sealevel;temperature
19040;BMP180;9652;49.014;12.052;2023-02-10T00:00:22;99538.00;;;-0.60
19040;BMP180;9652;49.014;12.052;2023-02-10T00:02:49;99595.00;;;-0.60
19040;BMP180;9652;49.014;12.052;2023-02-10T00:05:18;99592.00;;;-0.70
19040;BMP180;9652;49.014;12.052;2023-02-10T00:07:45;99587.00;;;-0.70
19040;BMP180;9652;49.014;12.052;2023-02-10T00:10:12;99588.00;;;-0.70
19040;BMP180;9652;49.014;12.052;2023-02-10T00:12:39;99592.00;;;-0.70
19040;BMP180;9652;49.014;12.052;2023-02-10T00:15:07;99589.00;;;-0.70
19040;BMP180;9652;49.014;12.052;2023-02-10T00:17:34;99591.00;;;-0.70
19040;BMP180;9652;49.014;12.052;2023-02-10T00:20:01;99605.00;;;-0.70
19040;BMP180;9652;49.014;12.052;2023-02-10T00:22:30;99594.00;;;-0.80
19040;BMP180;9652;49.014;12.052;2023-02-10T00:24:57;99602.00;;;-0.80
19040;BMP180;9652;49.014;12.052;2023-02-10T00:27:24;99617.00;;;-0.80
19040;BMP180;9652;49.014;12.052;2023-02-10T00:29:51;99610.00;;;-0.80
19040;BMP180;9652;49.014;12.052;2023-02-10T00:32:18;99616.00;;;-0.80
19040;BMP180;9652;49.014;12.052;2023-02-10T00:34:46;99608.00;;;-0.80
19040;BMP180;9652;49.014;12.052;2023-02-10T00:37:13;99608.00;;;-0.80
19040;BMP180;9652;49.014;12.052;2023-02-10T00:39:42;99616.00;;;-0.90
19040;BMP180;9652;49.014;12.052;2023-02-10T00:42:11;99616.00;;;-0.90
19040;BMP180;9652;49.014;12.052;2023-02-10T00:44:38;99606.00;;;-0.90
19040;BMP180;9652;49.014;12.052;2023-02-10T00:47:05;99607.00;;;-0.90
19040;BMP180;9652;49.014;12.052;2023-02-10T00:49:32;99622.00;;;-0.90
19040;BMP180;9652;49.014;12.052;2023-02-10T00:51:59;99620.00;;;-1.00
19040;BMP180;9652;49.014;12.052;2023-02-10T00:54:26;99624.00;;;-1.00
19040;BMP180;9652;49.014;12.052;2023-02-10T00:56:55;99618.00;;;-1.00
19040;BMP180;9652;49.014;12.052;2023-02-10T00:59:23;99627.00;;;-1.00
19040;BMP180;9652;49.014;12.052;2023-02-10T01:01:50;99622.00;;;-1.10
19040;BMP180;9652;49.014;12.052;2023-02-10T01:04:18;99616.00;;;-1.20
19040;BMP180;9652;49.014;12.052;2023-02-10T01:06:46;99620.00;;;-1.10
19040;BMP180;9652;49.014;12.052;2023-02-10T01:09:13;99615.00;;;-1.10
19040;BMP180;9652;49.014;12.052;2023-02-10T01:11:41;99611.00;;;-1.10
19040;BMP180;9652;49.014;12.052;2023-02-10T01:14:09;99612.00;;;-1.10
19040;BMP180;9652;49.014;12.052;2023-02-10T01:16:37;99601.00;;;-1.10
19040;BMP180;9652;49.014;12.052;2023-02-10T01:19:08;99586.00;;;-1.20
19040;BMP180;9652;49.014;12.052;2023-02-10T01:21:35;99608.00;;;-1.20
19040;BMP180;9652;49.014;12.052;2023-02-10T01:24:05;99604.00;;;-1.20
19040;BMP180;9652;49.014;12.052;2023-02-10T01:26:33;99609.00;;;-1.30
19040;BMP180;9652;49.014;12.052;2023-02-10T01:29:00;99616.00;;;-1.30
19040;BMP180;9652;49.014;12.052;2023-02-10T01:31:29;99602.00;;;-1.30
19040;BMP180;9652;49.014;12.052;2023-02-10T01:33:56;99616.00;;;-1.30
19040;BMP180;9652;49.014;12.052;2023-02-10T01:36:24;99591.00;;;-1.30
19040;BMP180;9652;49.014;12.052;2023-02-10T01:38:52;99612.00;;;-1.30
19040;BMP180;9652;49.014;12.052;2023-02-10T01:41:22;99609.00;;;-1.40
19040;BMP180;9652;49.014;12.052;2023-02-10T01:43:56;99624.00;;;-1.40
19040;BMP180;9652;49.014;12.052;2023-02-10T01:46:26;99612.00;;;-1.40
19040;BMP180;9652;49.014;12.052;2023-02-10T01:48:57;99607.00;;;-1.40
19040;BMP180;9652;49.014;12.052;2023-02-10T01:51:35;99617.00;;;-1.50
19040;BMP180;9652;49.014;12.052;2023-02-10T01:54:05;99617.00;;;-1.50
19040;BMP180;9652;49.014;12.052;2023-02-10T01:56:35;99609.00;;;-1.50
19040;BMP180;9652;49.014;12.052;2023-02-10T01:59:03;99602.00;;;-1.50
19040;BMP180;9652;49.014;12.052;2023-02-10T02:01:30;99597.00;;;-1.50
19040;BMP180;9652;49.014;12.052;2023-02-10T02:04:00;99600.00;;;-1.50
19040;BMP180;9652;49.014;12.052;2023-02-10T02:06:29;99614.00;;;-1.60
19040;BMP180;9652;49.014;12.052;2023-02-10T02:08:58;99618.00;;;-1.60
19040;BMP180;9652;49.014;12.052;2023-02-10T02:11:37;99617.00;;;-1.60
19040;BMP180;9652;49.014;12.052;2023-02-10T02:14:31;99613.00;;;-1.60
19040;BMP180;9652;49.014;12.052;2023-02-10T02:17:10;99614.00;;;-1.60
19040;BMP180;9652;49.014;12.052;2023-02-10T02:20:23;99613.00;;;-1.70
19040;BMP180;9652;49.014;12.052;2023-02-10T02:23:23;99607.00;;;-1.70
19040;BMP180;9652;49.014;12.052;2023-02-10T02:29:23;99612.00;;;-1.70
19040;BMP180;9652;49.014;12.052;2023-02-10T02:32:02;99589.00;;;-1.70
19040;BMP180;9652;49.014;12.052;2023-02-10T02:34:39;99620.00;;;-1.80
19040;BMP180;9652;49.014;12.052;2023-02-10T02:37:12;99626.00;;;-1.80
19040;BMP180;9652;49.014;12.052;2023-02-10T02:39:44;99624.00;;;-1.80
19040;BMP180;9652;49.014;12.052;2023-02-10T02:42:19;99636.00;;;-1.80
19040;BMP180;9652;49.014;12.052;2023-02-10T02:44:50;99633.00;;;-1.80
19040;BMP180;9652;49.014;12.052;2023-02-10T02:47:38;99638.00;;;-1.80
19040;BMP180;9652;49.014;12.052;2023-02-10T02:50:22;99637.00;;;-1.90
19040;BMP180;9652;49.014;12.052;2023-02-10T02:53:14;99646.00;;;-1.90
19040;BMP180;9652;49.014;12.052;2023-02-10T02:56:01;99652.00;;;-1.90
19040;BMP180;9652;49.014;12.052;2023-02-10T02:58:42;99655.00;;;-1.90
19040;BMP180;9652;49.014;12.052;2023-02-10T03:01:16;99656.00;;;-1.90
19040;BMP180;9652;49.014;12.052;2023-02-10T03:03:48;99658.00;;;-1.90
19040;BMP180;9652;49.014;12.052;2023-02-10T03:06:16;99653.00;;;-1.90
19040;BMP180;9652;49.014;12.052;2023-02-10T03:08:43;99658.00;;;-1.90
19040;BMP180;9652;49.014;12.052;2023-02-10T03:11:10;99654.00;;;-1.90
19040;BMP180;9652;49.014;12.052;2023-02-10T03:13:37;99653.00;;;-2.00
19040;BMP180;9652;49.014;12.052;2023-02-10T03:16:05;99648.00;;;-2.00
19040;BMP180;9652;49.014;12.052;2023-02-10T03:18:32;99652.00;;;-2.00
19040;BMP180;9652;49.014;12.052;2023-02-10T03:21:00;99660.00;;;-2.00
19040;BMP180;9652;49.014;12.052;2023-02-10T03:23:27;99649.00;;;-2.00
19040;BMP180;9652;49.014;12.052;2023-02-10T03:25:57;99654.00;;;-2.00
19040;BMP180;9652;49.014;12.052;2023-02-10T03:28:25;99654.00;;;-2.10
19040;BMP180;9652;49.014;12.052;2023-02-10T03:30:53;99658.00;;;-2.10
19040;BMP180;9652;49.014;12.052;2023-02-10T03:33:22;99662.00;;;-2.10
19040;BMP180;9652;49.014;12.052;2023-02-10T03:35:50;99668.00;;;-2.10
19040;BMP180;9652;49.014;12.052;2023-02-10T03:38:19;99649.00;;;-2.10
19040;BMP180;9652;49.014;12.052;2023-02-10T03:40:49;99661.00;;;-2.20
19040;BMP180;9652;49.014;12.052;2023-02-10T03:43:16;99671.00;;;-2.10
19040;BMP180;9652;49.014;12.052;2023-02-10T03:45:43;99661.00;;;-2.10
19040;BMP180;9652;49.014;12.052;2023-02-10T03:48:10;99654.00;;;-2.10
19040;BMP180;9652;49.014;12.052;2023-02-10T03:50:38;99656.00;;;-2.20
19040;BMP180;9652;49.014;12.052;2023-02-10T03:53:05;99658.00;;;-2.20
19040;BMP180;9652;49.014;12.052;2023-02-10T03:55:34;99655.00;;;-2.20
19040;BMP180;9652;49.014;12.052;2023-02-10T03:58:02;99674.00;;;-2.20
19040;BMP180;9652;49.014;12.052;2023-02-10T04:00:30;99673.00;;;-2.20
19040;BMP180;9652;49.014;12.052;2023-02-10T04:02:57;99660.00;;;-2.20
19040;BMP180;9652;49.014;12.052;2023-02-10T04:05:24;99671.00;;;-2.30
19040;BMP180;9652;49.014;12.052;2023-02-10T04:07:51;99676.00;;;-2.20
19040;BMP180;9652;49.014;12.052;2023-02-10T04:10:19;99690.00;;;-2.30
19040;BMP180;9652;49.014;12.052;2023-02-10T04:12:48;99687.00;;;-2.30
19040;BMP180;9652;49.014;12.052;2023-02-10T04:15:16;99696.00;;;-2.30
19040;BMP180;9652;49.014;12.052;2023-02-10T04:17:43;99683.00;;;-2.30
19040;BMP180;9652;49.014;12.052;2023-02-10T04:20:11;99684.00;;;-2.30
19040;BMP180;9652;49.014;12.052;2023-02-10T04:22:38;99705.00;;;-2.30
19040;BMP180;9652;49.014;12.052;2023-02-10T04:25:07;99699.00;;;-2.30
19040;BMP180;9652;49.014;12.052;2023-02-10T04:27:34;99700.00;;;-2.40
19040;BMP180;9652;49.014;12.052;2023-02-10T04:30:03;99697.00;;;-2.40
19040;BMP180;9652;49.014;12.052;2023-02-10T04:32:31;99684.00;;;-2.40
19040;BMP180;9652;49.014;12.052;2023-02-10T04:34:58;99697.00;;;-2.40
19040;BMP180;9652;49.014;12.052;2023-02-10T04:37:25;99682.00;;;-2.40
19040;BMP180;9652;49.014;12.052;2023-02-10T04:39:52;99688.00;;;-2.40
19040;BMP180;9652;49.014;12.052;2023-02-10T04:42:19;99691.00;;;-2.40
19040;BMP180;9652;49.014;12.052;2023-02-10T04:44:55;99697.00;;;-2.40
19040;BMP180;9652;49.014;12.052;2023-02-10T04:47:24;99688.00;;;-2.40
19040;BMP180;9652;49.014;12.052;2023-02-10T04:49:51;99677.00;;;-2.40
19040;BMP180;9652;49.014;12.052;2023-02-10T04:52:19;99699.00;;;-2.40
19040;BMP180;9652;49.014;12.052;2023-02-10T04:54:46;99710.00;;;-2.40
19040;BMP180;9652;49.014;12.052;2023-02-10T04:57:13;99709.00;;;-2.40
19040;BMP180;9652;49.014;12.052;2023-02-10T04:59:40;99702.00;;;-2.40
19040;BMP180;9652;49.014;12.052;2023-02-10T05:02:07;99709.00;;;-2.40
19040;BMP180;9652;49.014;12.052;2023-02-10T05:04:36;99697.00;;;-2.50
19040;BMP180;9652;49.014;12.052;2023-02-10T05:07:03;99708.00;;;-2.50
19040;BMP180;9652;49.014;12.052;2023-02-10T05:09:30;99709.00;;;-2.50
19040;BMP180;9652;49.014;12.052;2023-02-10T05:11:57;99729.00;;;-2.50
19040;BMP180;9652;49.014;12.052;2023-02-10T05:14:24;99713.00;;;-2.50
19040;BMP180;9652;49.014;12.052;2023-02-10T05:16:51;99699.00;;;-2.50
19040;BMP180;9652;49.014;12.052;2023-02-10T05:19:18;99722.00;;;-2.50
19040;BMP180;9652;49.014;12.052;2023-02-10T05:21:46;99716.00;;;-2.50
19040;BMP180;9652;49.014;12.052;2023-02-10T05:24:13;99717.00;;;-2.50
19040;BMP180;9652;49.014;12.052;2023-02-10T05:26:40;99725.00;;;-2.50
19040;BMP180;9652;49.014;12.052;2023-02-10T05:29:07;99726.00;;;-2.50
19040;BMP180;9652;49.014;12.052;2023-02-10T05:31:35;99711.00;;;-2.50
19040;BMP180;9652;49.014;12.052;2023-02-10T05:34:02;99724.00;;;-2.50
19040;BMP180;9652;49.014;12.052;2023-02-10T05:36:29;99710.00;;;-2.50
19040;BMP180;9652;49.014;12.052;2023-02-10T05:38:57;99736.00;;;-2.60
19040;BMP180;9652;49.014;12.052;2023-02-10T05:41:44;99735.00;;;-2.60
19040;BMP180;9652;49.014;12.052;2023-02-10T05:44:11;99748.00;;;-2.60
19040;BMP180;9652;49.014;12.052;2023-02-10T05:46:38;99725.00;;;-2.60
19040;BMP180;9652;49.014;12.052;2023-02-10T05:49:06;99748.00;;;-2.60
19040;BMP180;9652;49.014;12.052;2023-02-10T05:51:33;99736.00;;;-2.60
19040;BMP180;9652;49.014;12.052;2023-02-10T05:54:02;99747.00;;;-2.60
19040;BMP180;9652;49.014;12.052;2023-02-10T05:56:29;99748.00;;;-2.60
19040;BMP180;9652;49.014;12.052;2023-02-10T05:58:56;99747.00;;;-2.60
19040;BMP180;9652;49.014;12.052;2023-02-10T06:01:23;99760.00;;;-2.60
19040;BMP180;9652;49.014;12.052;2023-02-10T06:03:51;99765.00;;;-2.60
19040;BMP180;9652;49.014;12.052;2023-02-10T06:06:18;99754.00;;;-2.60
19040;BMP180;9652;49.014;12.052;2023-02-10T06:08:45;99774.00;;;-2.60
19040;BMP180;9652;49.014;12.052;2023-02-10T06:11:14;99775.00;;;-2.60
19040;BMP180;9652;49.014;12.052;2023-02-10T06:13:41;99782.00;;;-2.60
19040;BMP180;9652;49.014;12.052;2023-02-10T06:16:09;99780.00;;;-2.60
19040;BMP180;9652;49.014;12.052;2023-02-10T06:18:37;99800.00;;;-2.60
19040;BMP180;9652;49.014;12.052;2023-02-10T06:21:04;99777.00;;;-2.60
19040;BMP180;9652;49.014;12.052;2023-02-10T06:23:31;99796.00;;;-2.60
19040;BMP180;9652;49.014;12.052;2023-02-10T06:25:59;99797.00;;;-2.60
19040;BMP180;9652;49.014;12.052;2023-02-10T06:28:28;99792.00;;;-2.60
19040;BMP180;9652;49.014;12.052;2023-02-10T06:30:55;99791.00;;;-2.60
19040;BMP180;9652;49.014;12.052;2023-02-10T06:33:22;99800.00;;;-2.60
19040;BMP180;9652;49.014;12.052;2023-02-10T06:35:49;99790.00;;;-2.60
19040;BMP180;9652;49.014;12.052;2023-02-10T06:38:16;99765.00;;;-2.60
19040;BMP180;9652;49.014;12.052;2023-02-10T06:40:46;99802.00;;;-2.60
19040;BMP180;9652;49.014;12.052;2023-02-10T06:43:13;99800.00;;;-2.60
19040;BMP180;9652;49.014;12.052;2023-02-10T06:45:42;99801.00;;;-2.60
19040;BMP180;9652;49.014;12.052;2023-02-10T06:48:09;99800.00;;;-2.60
19040;BMP180;9652;49.014;12.052;2023-02-10T06:50:36;99807.00;;;-2.60
19040;BMP180;9652;49.014;12.052;2023-02-10T06:53:03;99813.00;;;-2.60
19040;BMP180;9652;49.014;12.052;2023-02-10T06:55:31;99776.00;;;-2.50
19040;BMP180;9652;49.014;12.052;2023-02-10T06:57:58;99817.00;;;-2.50
19040;BMP180;9652;49.014;12.052;2023-02-10T07:00:26;99809.00;;;-2.50
19040;BMP180;9652;49.014;12.052;2023-02-10T07:02:55;99824.00;;;-2.50
19040;BMP180;9652;49.014;12.052;2023-02-10T07:05:22;99824.00;;;-2.40
19040;BMP180;9652;49.014;12.052;2023-02-10T07:07:49;99808.00;;;-2.40
19040;BMP180;9652;49.014;12.052;2023-02-10T07:10:19;99807.00;;;-2.30
19040;BMP180;9652;49.014;12.052;2023-02-10T07:12:46;99832.00;;;-2.30
19040;BMP180;9652;49.014;12.052;2023-02-10T07:15:14;99839.00;;;-2.20
19040;BMP180;9652;49.014;12.052;2023-02-10T07:17:42;99832.00;;;-2.20
19040;BMP180;9652;49.014;12.052;2023-02-10T07:20:11;99845.00;;;-2.20
19040;BMP180;9652;49.014;12.052;2023-02-10T07:22:39;99835.00;;;-2.10
19040;BMP180;9652;49.014;12.052;2023-02-10T07:25:06;99858.00;;;-2.10
19040;BMP180;9652;49.014;12.052;2023-02-10T07:27:33;99861.00;;;-2.00
19040;BMP180;9652;49.014;12.052;2023-02-10T07:30:00;99855.00;;;-2.00
19040;BMP180;9652;49.014;12.052;2023-02-10T07:32:27;99843.00;;;-2.00
19040;BMP180;9652;49.014;12.052;2023-02-10T07:34:55;99846.00;;;-1.90
19040;BMP180;9652;49.014;12.052;2023-02-10T07:37:23;99845.00;;;-1.90
19040;BMP180;9652;49.014;12.052;2023-02-10T07:39:52;99844.00;;;-1.80
19040;BMP180;9652;49.014;12.052;2023-02-10T07:42:19;99853.00;;;-1.80
19040;BMP180;9652;49.014;12.052;2023-02-10T07:45:18;99848.00;;;-1.70
19040;BMP180;9652;49.014;12.052;2023-02-10T07:47:46;99844.00;;;-1.70
19040;BMP180;9652;49.014;12.052;2023-02-10T07:50:13;99855.00;;;-1.60
19040;BMP180;9652;49.014;12.052;2023-02-10T07:52:42;99860.00;;;-1.60
19040;BMP180;9652;49.014;12.052;2023-02-10T07:55:09;99844.00;;;-1.50
19040;BMP180;9652;49.014;12.052;2023-02-10T07:57:36;99862.00;;;-1.40
19040;BMP180;9652;49.014;12.052;2023-02-10T08:00:06;99868.00;;;-1.40
19040;BMP180;9652;49.014;12.052;2023-02-10T08:02:39;99832.00;;;-1.30
19040;BMP180;9652;49.014;12.052;2023-02-10T08:05:06;99866.00;;;-1.20
19040;BMP180;9652;49.014;12.052;2023-02-10T08:07:33;99851.00;;;-1.10
19040;BMP180;9652;49.014;12.052;2023-02-10T08:10:03;99854.00;;;-1.10
19040;BMP180;9652;49.014;12.052;2023-02-10T08:12:30;99857.00;;;-1.00
19040;BMP180;9652;49.014;12.052;2023-02-10T08:14:58;99860.00;;;-0.90
19040;BMP180;9652;49.014;12.052;2023-02-10T08:17:25;99856.00;;;-0.80
19040;BMP180;9652;49.014;12.052;2023-02-10T08:19:53;99858.00;;;-0.80
19040;BMP180;9652;49.014;12.052;2023-02-10T08:22:20;99877.00;;;-0.70
19040;BMP180;9652;49.014;12.052;2023-02-10T08:24:48;99878.00;;;-0.60
19040;BMP180;9652;49.014;12.052;2023-02-10T08:27:16;99877.00;;;-0.50
19040;BMP180;9652;49.014;12.052;2023-02-10T08:29:43;99881.00;;;-0.50
19040;BMP180;9652;49.014;12.052;2023-02-10T08:32:11;99885.00;;;-0.40
19040;BMP180;9652;49.014;12.052;2023-02-10T08:34:45;99886.00;;;-0.30
19040;BMP180;9652;49.014;12.052;2023-02-10T08:37:12;99875.00;;;-0.20
19040;BMP180;9652;49.014;12.052;2023-02-10T08:39:40;99884.00;;;-0.10
19040;BMP180;9652;49.014;12.052;2023-02-10T08:42:07;99884.00;;;0.00
19040;BMP180;9652;49.014;12.052;2023-02-10T08:44:36;99881.00;;;0.10
19040;BMP180;9652;49.014;12.052;2023-02-10T08:47:04;99883.00;;;0.20
19040;BMP180;9652;49.014;12.052;2023-02-10T08:49:31;99894.00;;;0.30
19040;BMP180;9652;49.014;12.052;2023-02-10T08:51:58;99900.00;;;0.40
19040;BMP180;9652;49.014;12.052;2023-02-10T08:54:26;99872.00;;;0.50
19040;BMP180;9652;49.014;12.052;2023-02-10T08:56:54;99883.00;;;0.50
19040;BMP180;9652;49.014;12.052;2023-02-10T08:59:21;99901.00;;;0.60
19040;BMP180;9652;49.014;12.052;2023-02-10T09:01:50;99888.00;;;0.70
19040;BMP180;9652;49.014;12.052;2023-02-10T09:04:17;99884.00;;;0.80
19040;BMP180;9652;49.014;12.052;2023-02-10T09:06:45;99904.00;;;0.80
19040;BMP180;9652;49.014;12.052;2023-02-10T09:09:15;99893.00;;;0.90
19040;BMP180;9652;49.014;12.052;2023-02-10T09:11:43;99894.00;;;1.00
19040;BMP180;9652;49.014;12.052;2023-02-10T09:14:10;99895.00;;;1.10
19040;BMP180;9652;49.014;12.052;2023-02-10T09:16:38;99905.00;;;1.20
19040;BMP180;9652;49.014;12.052;2023-02-10T09:19:06;99902.00;;;1.20
19040;BMP180;9652;49.014;12.052;2023-02-10T09:21:33;99907.00;;;1.30
19040;BMP180;9652;49.014;12.052;2023-02-10T09:24:00;99909.00;;;1.40
19040;BMP180;9652;49.014;12.052;2023-02-10T09:26:28;99902.00;;;1.50
19040;BMP180;9652;49.014;12.052;2023-02-10T09:28:55;99894.00;;;1.60
19040;BMP180;9652;49.014;12.052;2023-02-10T09:31:23;99897.00;;;1.60
19040;BMP180;9652;49.014;12.052;2023-02-10T09:33:50;99894.00;;;1.70
19040;BMP180;9652;49.014;12.052;2023-02-10T09:36:19;99898.00;;;1.80
19040;BMP180;9652;49.014;12.052;2023-02-10T09:38:46;99895.00;;;1.90
19040;BMP180;9652;49.014;12.052;2023-02-10T09:41:31;99878.00;;;2.00
19040;BMP180;9652;49.014;12.052;2023-02-10T09:44:11;99900.00;;;2.10
19040;BMP180;9652;49.014;12.052;2023-02-10T09:46:58;99875.00;;;2.10
19040;BMP180;9652;49.014;12.052;2023-02-10T09:50:05;99896.00;;;2.30
19040;BMP180;9652;49.014;12.052;2023-02-10T09:52:52;99895.00;;;2.40
19040;BMP180;9652;49.014;12.052;2023-02-10T09:55:27;99888.00;;;2.50
19040;BMP180;9652;49.014;12.052;2023-02-10T09:57:59;99876.00;;;2.60
19040;BMP180;9652;49.014;12.052;2023-02-10T10:00:31;99878.00;;;2.70
19040;BMP180;9652;49.014;12.052;2023-02-10T10:03:05;99841.00;;;2.80
19040;BMP180;9652;49.014;12.052;2023-02-10T10:05:46;99878.00;;;2.90
19040;BMP180;9652;49.014;12.052;2023-02-10T10:08:24;99868.00;;;3.00
19040;BMP180;9652;49.014;12.052;2023-02-10T10:10:52;99860.00;;;3.10
19040;BMP180;9652;49.014;12.052;2023-02-10T10:13:25;99883.00;;;3.20
19040;BMP180;9652;49.014;12.052;2023-02-10T10:16:13;99879.00;;;3.30
19040;BMP180;9652;49.014;12.052;2023-02-10T10:18:57;99878.00;;;3.40
19040;BMP180;9652;49.014;12.052;2023-02-10T10:21:32;99868.00;;;3.50
19040;BMP180;9652;49.014;12.052;2023-02-10T10:24:22;99846.00;;;3.60
19040;BMP180;9652;49.014;12.052;2023-02-10T10:27:06;99863.00;;;3.70
19040;BMP180;9652;49.014;12.052;2023-02-10T10:29:48;99867.00;;;3.80
19040;BMP180;9652;49.014;12.052;2023-02-10T10:32:34;99867.00;;;3.90
19040;BMP180;9652;49.014;12.052;2023-02-10T10:35:12;99858.00;;;4.00
19040;BMP180;9652;49.014;12.052;2023-02-10T10:37:40;99873.00;;;4.10
19040;BMP180;9652;49.014;12.052;2023-02-10T10:40:17;99854.00;;;4.20
19040;BMP180;9652;49.014;12.052;2023-02-10T10:42:50;99868.00;;;4.30
19040;BMP180;9652;49.014;12.052;2023-02-10T10:45:24;99881.00;;;4.40
19040;BMP180;9652;49.014;12.052;2023-02-10T10:47:59;99870.00;;;4.50
19040;BMP180;9652;49.014;12.052;2023-02-10T10:50:27;99861.00;;;4.50
19040;BMP180;9652;49.014;12.052;2023-02-10T10:52:56;99859.00;;;4.60
19040;BMP180;9652;49.014;12.052;2023-02-10T10:55:32;99865.00;;;4.70
19040;BMP180;9652;49.014;12.052;2023-02-10T10:58:10;99856.00;;;4.80
19040;BMP180;9652;49.014;12.052;2023-02-10T11:00:49;99863.00;;;4.90
19040;BMP180;9652;49.014;12.052;2023-02-10T11:03:17;99852.00;;;5.00
19040;BMP180;9652;49.014;12.052;2023-02-10T11:06:00;99842.00;;;5.10
19040;BMP180;9652;49.014;12.052;2023-02-10T11:08:33;99844.00;;;5.10
19040;BMP180;9652;49.014;12.052;2023-02-10T11:11:06;99831.00;;;5.20
19040;BMP180;9652;49.014;12.052;2023-02-10T11:13:38;99824.00;;;5.30
19040;BMP180;9652;49.014;12.052;2023-02-10T11:16:10;99846.00;;;5.40
19040;BMP180;9652;49.014;12.052;2023-02-10T11:18:52;99833.00;;;5.50
19040;BMP180;9652;49.014;12.052;2023-02-10T11:21:20;99835.00;;;5.60
19040;BMP180;9652;49.014;12.052;2023-02-10T11:23:50;99833.00;;;5.60
19040;BMP180;9652;49.014;12.052;2023-02-10T11:26:22;99828.00;;;5.70
19040;BMP180;9652;49.014;12.052;2023-02-10T11:28:50;99825.00;;;5.80
19040;BMP180;9652;49.014;12.052;2023-02-10T11:31:28;99825.00;;;5.90
19040;BMP180;9652;49.014;12.052;2023-02-10T11:34:01;99835.00;;;6.00
19040;BMP180;9652;49.014;12.052;2023-02-10T11:36:35;99821.00;;;6.10
19040;BMP180;9652;49.014;12.052;2023-02-10T11:39:14;99809.00;;;6.10
19040;BMP180;9652;49.014;12.052;2023-02-10T11:41:43;99818.00;;;6.20
19040;BMP180;9652;49.014;12.052;2023-02-10T11:44:27;99786.00;;;6.30
19040;BMP180;9652;49.014;12.052;2023-02-10T11:46:58;99797.00;;;6.30
19040;BMP180;9652;49.014;12.052;2023-02-10T11:49:27;99798.00;;;6.40
19040;BMP180;9652;49.014;12.052;2023-02-10T11:52:00;99822.00;;;6.40
19040;BMP180;9652;49.014;12.052;2023-02-10T11:54:29;99793.00;;;6.50
19040;BMP180;9652;49.014;12.052;2023-02-10T11:57:16;99820.00;;;6.50
19040;BMP180;9652;49.014;12.052;2023-02-10T12:00:14;99783.00;;;6.50
19040;BMP180;9652;49.014;12.052;2023-02-10T12:03:17;99796.00;;;6.60
19040;BMP180;9652;49.014;12.052;2023-02-10T12:05:58;99810.00;;;6.60
19040;BMP180;9652;49.014;12.052;2023-02-10T12:08:41;99789.00;;;6.70
19040;BMP180;9652;49.014;12.052;2023-02-10T12:11:23;99809.00;;;6.80
19040;BMP180;9652;49.014;12.052;2023-02-10T12:14:04;99805.00;;;6.80
19040;BMP180;9652;49.014;12.052;2023-02-10T12:16:46;99807.00;;;6.90
19040;BMP180;9652;49.014;12.052;2023-02-10T12:19:28;99776.00;;;6.90
19040;BMP180;9652;49.014;12.052;2023-02-10T12:22:04;99805.00;;;7.00
19040;BMP180;9652;49.014;12.052;2023-02-10T12:24:53;99793.00;;;7.00
19040;BMP180;9652;49.014;12.052;2023-02-10T12:27:37;99795.00;;;7.10
19040;BMP180;9652;49.014;12.052;2023-02-10T12:30:26;99786.00;;;7.10
19040;BMP180;9652;49.014;12.052;2023-02-10T12:33:13;99784.00;;;7.10
19040;BMP180;9652;49.014;12.052;2023-02-10T12:35:55;99786.00;;;7.10
19040;BMP180;9652;49.014;12.052;2023-02-10T12:38:49;99781.00;;;7.20
19040;BMP180;9652;49.014;12.052;2023-02-10T12:41:26;99773.00;;;7.20
19040;BMP180;9652;49.014;12.052;2023-02-10T12:44:17;99776.00;;;7.20
19040;BMP180;9652;49.014;12.052;2023-02-10T12:47:02;99772.00;;;7.20
19040;BMP180;9652;49.014;12.052;2023-02-10T12:49:49;99780.00;;;7.20
19040;BMP180;9652;49.014;12.052;2023-02-10T12:52:23;99771.00;;;7.20
19040;BMP180;9652;49.014;12.052;2023-02-10T12:55:00;99766.00;;;7.20
19040;BMP180;9652;49.014;12.052;2023-02-10T12:57:37;99767.00;;;7.30
19040;BMP180;9652;49.014;12.052;2023-02-10T13:00:15;99763.00;;;7.30
19040;BMP180;9652;49.014;12.052;2023-02-10T13:02:54;99763.00;;;7.30
19040;BMP180;9652;49.014;12.052;2023-02-10T13:05:28;99763.00;;;7.30
19040;BMP180;9652;49.014;12.052;2023-02-10T13:08:00;99761.00;;;7.30
19040;BMP180;9652;49.014;12.052;2023-02-10T13:10:33;99744.00;;;7.30
19040;BMP180;9652;49.014;12.052;2023-02-10T13:13:11;99717.00;;;7.30
19040;BMP180;9652;49.014;12.052;2023-02-10T13:15:45;99754.00;;;7.30
19040;BMP180;9652;49.014;12.052;2023-02-10T13:18:21;99746.00;;;7.40
19040;BMP180;9652;49.014;12.052;2023-02-10T13:21:01;99748.00;;;7.40
19040;BMP180;9652;49.014;12.052;2023-02-10T13:23:40;99740.00;;;7.40
19040;BMP180;9652;49.014;12.052;2023-02-10T13:26:37;99731.00;;;7.40
19040;BMP180;9652;49.014;12.052;2023-02-10T13:29:21;99738.00;;;7.40
19040;BMP180;9652;49.014;12.052;2023-02-10T13:32:09;99740.00;;;7.40
19040;BMP180;9652;49.014;12.052;2023-02-10T13:34:44;99746.00;;;7.50
19040;BMP180;9652;49.014;12.052;2023-02-10T13:37:17;99738.00;;;7.50
19040;BMP180;9652;49.014;12.052;2023-02-10T13:39:52;99730.00;;;7.50
19040;BMP180;9652;49.014;12.052;2023-02-10T13:42:26;99733.00;;;7.50
19040;BMP180;9652;49.014;12.052;2023-02-10T13:45:00;99717.00;;;7.50
19040;BMP180;9652;49.014;12.052;2023-02-10T13:47:36;99724.00;;;7.50
19040;BMP180;9652;49.014;12.052;2023-02-10T13:50:20;99734.00;;;7.50
19040;BMP180;9652;49.014;12.052;2023-02-10T13:52:52;99736.00;;;7.60
19040;BMP180;9652;49.014;12.052;2023-02-10T13:55:40;99688.00;;;7.50
19040;BMP180;9652;49.014;12.052;2023-02-10T13:58:50;99735.00;;;7.50
19040;BMP180;9652;49.014;12.052;2023-02-10T14:01:37;99731.00;;;7.50
19040;BMP180;9652;49.014;12.052;2023-02-10T14:04:26;99733.00;;;7.50
19040;BMP180;9652;49.014;12.052;2023-02-10T14:06:55;99730.00;;;7.50
19040;BMP180;9652;49.014;12.052;2023-02-10T14:09:35;99741.00;;;7.50
19040;BMP180;9652;49.014;12.052;2023-02-10T14:12:23;99737.00;;;7.50
19040;BMP180;9652;49.014;12.052;2023-02-10T14:14:50;99720.00;;;7.50
19040;BMP180;9652;49.014;12.052;2023-02-10T14:17:22;99736.00;;;7.50
19040;BMP180;9652;49.014;12.052;2023-02-10T14:19:55;99734.00;;;7.50
19040;BMP180;9652;49.014;12.052;2023-02-10T14:22:30;99756.00;;;7.50
19040;BMP180;9652;49.014;12.052;2023-02-10T14:25:04;99733.00;;;7.50
19040;BMP180;9652;49.014;12.052;2023-02-10T14:27:41;99737.00;;;7.50
19040;BMP180;9652;49.014;12.052;2023-02-10T14:30:21;99742.00;;;7.50
19040;BMP180;9652;49.014;12.052;2023-02-10T14:32:51;99737.00;;;7.50
19040;BMP180;9652;49.014;12.052;2023-02-10T14:35:21;99741.00;;;7.50
19040;BMP180;9652;49.014;12.052;2023-02-10T14:37:51;99750.00;;;7.50
19040;BMP180;9652;49.014;12.052;2023-02-10T14:40:23;99736.00;;;7.50
19040;BMP180;9652;49.014;12.052;2023-02-10T14:42:51;99723.00;;;7.50
19040;BMP180;9652;49.014;12.052;2023-02-10T14:45:21;99743.00;;;7.50